createdAt,value
2018-03-17T00:01:44.487Z,2.62
2018-03-17T00:04:10.942Z,4.68
2018-03-17T00:06:37.331Z,3.05
2018-03-17T00:09:03.776Z,3.33
2018-03-17T00:11:30.166Z,2.72
2018-03-17T00:13:56.547Z,2.80
2018-03-17T00:16:22.992Z,3.15
2018-03-17T00:18:50.340Z,3.37
2018-03-17T00:21:16.782Z,2.62
2018-03-17T00:23:43.166Z,3.05
2018-03-17T00:26:10.348Z,2.25
2018-03-17T00:28:36.736Z,2.90
2018-03-17T00:31:03.840Z,2.45
2018-03-17T00:33:30.225Z,2.35
2018-03-17T00:35:57.374Z,3.30
2018-03-17T00:38:23.757Z,3.20
2018-03-17T00:40:50.186Z,2.50
2018-03-17T00:43:16.578Z,2.50
2018-03-17T00:45:42.952Z,3.50
2018-03-17T00:48:09.359Z,3.35
2018-03-17T00:50:35.834Z,3.67
2018-03-17T00:53:02.221Z,3.15
2018-03-17T00:55:28.597Z,2.80
2018-03-17T00:57:54.982Z,2.95
2018-03-17T01:00:21.399Z,2.10
2018-03-17T01:02:47.839Z,2.50
2018-03-17T01:05:14.259Z,3.33
2018-03-17T01:07:40.622Z,3.00
2018-03-17T01:10:07.053Z,2.85
2018-03-17T01:12:33.441Z,3.00
2018-03-17T01:14:59.854Z,2.42
2018-03-17T01:17:27.017Z,3.45
2018-03-17T01:19:54.289Z,2.90
2018-03-17T01:22:20.655Z,2.85
2018-03-17T01:24:47.048Z,3.25
2018-03-17T01:27:13.413Z,2.72
2018-03-17T01:29:39.796Z,3.03
2018-03-17T01:32:07.001Z,2.80
2018-03-17T01:34:33.427Z,3.00
2018-03-17T01:36:59.803Z,3.05
2018-03-17T01:39:26.203Z,3.45
2018-03-17T01:41:52.630Z,2.70
2018-03-17T01:44:19.004Z,3.20
2018-03-17T01:46:45.462Z,2.65
2018-03-17T01:49:11.839Z,3.17
2018-03-17T01:51:38.251Z,5.22
2018-03-17T01:54:22.989Z,6.22
2018-03-17T01:56:49.380Z,6.10
2018-03-17T01:59:16.495Z,6.15
2018-03-17T02:01:42.914Z,5.70
2018-03-17T02:04:10.086Z,7.82
2018-03-17T02:06:37.282Z,6.35
2018-03-17T02:09:03.718Z,7.40
2018-03-17T02:11:30.203Z,6.90
2018-03-17T02:13:56.607Z,6.93
2018-03-17T02:16:23.010Z,6.70
2018-03-17T02:18:49.397Z,6.07
2018-03-17T02:21:16.498Z,4.35
2018-03-17T02:23:42.879Z,3.90
2018-03-17T02:26:10.001Z,4.32
2018-03-17T02:28:36.366Z,4.00
2018-03-17T02:31:02.738Z,3.85
2018-03-17T02:33:29.143Z,3.40
2018-03-17T02:35:55.553Z,4.57
2018-03-17T02:38:22.729Z,6.95
2018-03-17T02:40:49.137Z,5.40
2018-03-17T02:43:16.286Z,7.07
2018-03-17T02:45:43.401Z,6.50
2018-03-17T02:48:09.756Z,8.55
2018-03-17T02:50:36.945Z,8.85
2018-03-17T02:53:03.352Z,8.02
2018-03-17T02:55:29.727Z,7.75
2018-03-17T02:57:56.089Z,11.75
2018-03-17T03:00:22.488Z,9.27
2018-03-17T03:02:48.850Z,7.82
2018-03-17T03:05:15.248Z,8.45
2018-03-17T03:07:41.650Z,7.07
2018-03-17T03:10:08.052Z,8.00
2018-03-17T03:12:35.142Z,7.87
2018-03-17T03:15:01.530Z,8.13
2018-03-17T03:17:28.693Z,7.90
2018-03-17T03:19:55.075Z,8.55
2018-03-17T03:22:21.442Z,8.95
2018-03-17T03:24:48.583Z,8.13
2018-03-17T03:27:14.941Z,8.80
2018-03-17T03:29:41.349Z,9.73
2018-03-17T03:32:08.458Z,9.63
2018-03-17T03:34:34.844Z,9.68
2018-03-17T03:37:01.209Z,9.73
2018-03-17T03:39:27.565Z,13.05
2018-03-17T03:41:54.725Z,11.95
2018-03-17T03:44:21.858Z,11.57
2018-03-17T03:46:48.234Z,9.63
2018-03-17T03:49:14.637Z,10.55
2018-03-17T03:51:41.797Z,9.10
2018-03-17T03:54:09.010Z,6.80
2018-03-17T03:56:35.415Z,8.73
2018-03-17T03:59:01.779Z,10.60
2018-03-17T04:01:28.169Z,14.00
2018-03-17T04:03:54.540Z,9.32
2018-03-17T04:06:20.900Z,13.27
2018-03-17T04:08:47.283Z,11.55
2018-03-17T04:11:13.624Z,14.60
2018-03-17T04:13:40.032Z,12.45
2018-03-17T04:16:06.493Z,15.18
2018-03-17T04:18:32.929Z,11.82
2018-03-17T04:20:59.337Z,10.45
2018-03-17T04:23:25.724Z,11.48
2018-03-17T04:25:52.811Z,13.65
2018-03-17T04:28:19.173Z,13.55
2018-03-17T04:30:45.575Z,12.30
2018-03-17T04:33:11.997Z,11.18
2018-03-17T04:35:38.393Z,12.80
2018-03-17T04:38:04.798Z,11.77
2018-03-17T04:40:32.052Z,10.18
2018-03-17T04:42:59.146Z,12.57
2018-03-17T04:45:25.559Z,16.33
2018-03-17T04:47:51.921Z,14.87
2018-03-17T04:50:18.257Z,15.77
2018-03-17T04:52:44.690Z,18.42
2018-03-17T04:55:11.049Z,17.10
2018-03-17T04:57:37.405Z,15.77
2018-03-17T05:00:04.671Z,18.35
2018-03-17T05:02:31.228Z,17.58
2018-03-17T05:04:57.633Z,19.50
2018-03-17T05:07:24.003Z,16.70
2018-03-17T05:09:50.382Z,16.75
2018-03-17T05:12:16.779Z,18.17
2018-03-17T05:14:43.170Z,19.17
2018-03-17T05:17:09.528Z,19.37
2018-03-17T05:19:35.901Z,17.85
2018-03-17T05:22:03.007Z,20.23
2018-03-17T05:24:29.392Z,20.52
2018-03-17T05:26:55.774Z,19.05
2018-03-17T05:29:22.146Z,19.55
2018-03-17T05:31:48.548Z,20.37
2018-03-17T05:34:14.920Z,18.70
2018-03-17T05:36:41.361Z,19.12
2018-03-17T05:39:07.786Z,16.27
2018-03-17T05:41:34.181Z,15.93
2018-03-17T05:44:01.304Z,14.13
2018-03-17T05:46:27.744Z,13.32
2018-03-17T05:48:54.126Z,14.50
2018-03-17T05:51:20.534Z,14.05
2018-03-17T05:53:46.958Z,13.62
2018-03-17T05:56:14.155Z,15.60
2018-03-17T05:58:40.561Z,8.77
2018-03-17T06:01:08.014Z,12.95
2018-03-17T06:03:34.378Z,14.30
2018-03-17T06:06:00.810Z,16.83
2018-03-17T06:08:27.177Z,13.48
2018-03-17T06:10:54.299Z,15.63
2018-03-17T06:13:20.714Z,10.13
2018-03-17T06:15:47.110Z,10.55
2018-03-17T06:18:13.476Z,16.15
2018-03-17T06:20:39.889Z,13.05
2018-03-17T06:23:06.256Z,13.90
2018-03-17T06:25:32.601Z,14.30
2018-03-17T06:27:59.002Z,13.25
2018-03-17T06:30:25.365Z,13.82
2018-03-17T06:32:52.517Z,11.45
2018-03-17T06:35:19.644Z,12.43
2018-03-17T06:37:46.047Z,15.02
2018-03-17T06:40:12.466Z,13.60
2018-03-17T06:42:38.830Z,17.10
2018-03-17T06:45:05.704Z,14.85
2018-03-17T06:47:32.816Z,13.70
2018-03-17T06:49:59.243Z,13.43
2018-03-17T06:52:26.405Z,14.48
2018-03-17T06:54:52.822Z,15.75
2018-03-17T06:57:19.230Z,13.30
2018-03-17T06:59:45.619Z,14.48
2018-03-17T07:02:12.030Z,11.70
2018-03-17T07:04:38.390Z,11.95
2018-03-17T07:07:05.540Z,12.10
2018-03-17T07:09:32.657Z,15.20
2018-03-17T07:11:59.025Z,14.50
2018-03-17T07:14:26.197Z,15.60
2018-03-17T07:16:52.607Z,8.93
2018-03-17T07:19:19.002Z,13.68
2018-03-17T07:21:45.450Z,14.23
2018-03-17T07:24:11.831Z,11.23
2018-03-17T07:26:38.335Z,11.82
2018-03-17T07:29:04.750Z,7.50
2018-03-17T07:31:31.901Z,9.70
2018-03-17T07:33:58.313Z,13.50
2018-03-17T07:36:24.696Z,13.07
2018-03-17T07:38:51.071Z,15.07
2018-03-17T07:41:17.534Z,11.88
2018-03-17T07:43:44.685Z,14.02
2018-03-17T07:46:11.861Z,16.98
2018-03-17T07:48:38.231Z,15.50
2018-03-17T07:51:04.726Z,9.00
2018-03-17T07:53:31.089Z,15.77
2018-03-17T07:55:57.514Z,5.25
2018-03-17T07:58:24.711Z,12.68
2018-03-17T08:00:51.993Z,9.93
2018-03-17T08:03:18.436Z,8.57
2018-03-17T08:05:44.900Z,13.45
2018-03-17T08:08:12.117Z,9.65
2018-03-17T08:10:38.542Z,14.57
2018-03-17T08:13:04.955Z,9.20
2018-03-17T08:15:32.222Z,11.63
2018-03-17T08:17:58.759Z,8.77
2018-03-17T08:20:25.238Z,11.32
2018-03-17T08:22:51.874Z,12.98
2018-03-17T08:25:18.271Z,11.43
2018-03-17T08:27:44.707Z,12.43
2018-03-17T08:30:11.110Z,13.07
2018-03-17T08:32:37.571Z,8.20
2018-03-17T08:35:04.117Z,7.37
2018-03-17T08:37:30.498Z,9.70
2018-03-17T08:39:56.897Z,10.00
2018-03-17T08:42:24.087Z,6.45
2018-03-17T08:44:50.580Z,9.60
2018-03-17T08:47:17.702Z,13.62
2018-03-17T08:49:44.145Z,12.68
2018-03-17T08:52:10.572Z,8.07
2018-03-17T08:54:37.726Z,8.38
2018-03-17T08:57:04.208Z,12.32
2018-03-17T08:59:30.654Z,11.98
2018-03-17T09:01:57.126Z,7.30
2018-03-17T09:04:23.614Z,14.85
2018-03-17T09:06:50.060Z,7.57
2018-03-17T09:09:16.489Z,14.87
2018-03-17T09:11:43.677Z,12.85
2018-03-17T09:14:10.162Z,15.00
2018-03-17T09:16:37.340Z,10.00
2018-03-17T09:19:04.581Z,9.82
2018-03-17T09:21:31.019Z,7.47
2018-03-17T09:23:57.430Z,10.63
2018-03-17T09:26:24.716Z,10.10
2018-03-17T09:28:51.177Z,14.82
2018-03-17T09:31:18.313Z,18.20
2018-03-17T09:33:44.948Z,13.50
2018-03-17T09:36:11.320Z,14.32
2018-03-17T09:38:37.699Z,17.42
2018-03-17T09:41:04.985Z,10.90
2018-03-17T09:43:31.411Z,9.23
2018-03-17T09:45:58.630Z,22.48
2018-03-17T09:48:25.108Z,10.88
2018-03-17T09:50:51.510Z,9.10
2018-03-17T09:53:18.706Z,9.77
2018-03-17T09:55:45.093Z,8.77
2018-03-17T09:58:11.477Z,11.85
2018-03-17T10:00:38.773Z,10.05
2018-03-17T10:03:05.913Z,10.85
2018-03-17T10:05:32.395Z,6.03
2018-03-17T10:07:58.869Z,10.63
2018-03-17T10:10:26.007Z,7.05
2018-03-17T10:12:52.475Z,8.10
2018-03-17T10:15:18.908Z,9.43
2018-03-17T10:17:45.373Z,8.18
2018-03-17T10:20:11.716Z,13.80
2018-03-17T10:22:38.166Z,9.40
2018-03-17T10:25:04.563Z,11.73
2018-03-17T10:27:30.976Z,7.35
2018-03-17T10:29:58.272Z,10.25
2018-03-17T10:32:24.702Z,21.83
2018-03-17T10:34:51.169Z,13.05
2018-03-17T10:37:17.574Z,7.00
2018-03-17T10:39:44.068Z,14.90
2018-03-17T10:42:10.882Z,9.38
2018-03-17T10:44:37.290Z,16.92
2018-03-17T10:47:04.496Z,16.73
2018-03-17T10:49:30.897Z,15.65
2018-03-17T10:51:57.290Z,7.35
2018-03-17T10:54:23.702Z,9.13
2018-03-17T10:56:50.126Z,14.20
2018-03-17T10:59:16.584Z,16.15
2018-03-17T11:01:42.987Z,10.98
2018-03-17T11:04:09.401Z,9.90
2018-03-17T11:06:35.852Z,10.88
2018-03-17T11:09:02.337Z,5.70
2018-03-17T11:11:29.653Z,12.23
2018-03-17T11:13:56.038Z,15.00
2018-03-17T11:16:22.488Z,6.87
2018-03-17T11:18:48.952Z,9.55
2018-03-17T11:21:15.486Z,12.88
2018-03-17T11:23:41.912Z,6.55
2018-03-17T11:26:08.405Z,9.65
2018-03-17T11:28:34.795Z,14.32
2018-03-17T11:31:02.619Z,11.45
2018-03-17T11:33:29.042Z,9.57
2018-03-17T11:35:56.432Z,13.10
2018-03-17T11:38:22.927Z,13.43
2018-03-17T11:40:49.364Z,9.00
2018-03-17T11:43:15.769Z,11.20
2018-03-17T11:45:44.311Z,9.80
2018-03-17T11:48:10.722Z,9.00
2018-03-17T11:50:37.760Z,7.15
2018-03-17T11:53:04.172Z,12.27
2018-03-17T11:55:30.629Z,9.52
2018-03-17T11:57:57.104Z,8.65
2018-03-17T12:00:24.278Z,7.60
2018-03-17T12:02:50.714Z,8.00
2018-03-17T12:05:17.124Z,9.43
2018-03-17T12:07:44.234Z,11.12
2018-03-17T12:10:11.310Z,8.50
2018-03-17T12:12:37.684Z,4.85
2018-03-17T12:15:04.169Z,13.05
2018-03-17T12:17:31.349Z,16.00
2018-03-17T12:19:58.356Z,10.35
2018-03-17T12:22:24.762Z,11.38
2018-03-17T12:24:52.586Z,9.90
2018-03-17T12:27:19.083Z,9.63
2018-03-17T12:29:46.407Z,7.35
2018-03-17T12:32:12.790Z,13.60
2018-03-17T12:34:39.218Z,17.95
2018-03-17T12:37:06.420Z,8.70
2018-03-17T12:39:32.931Z,12.85
2018-03-17T12:41:59.504Z,13.55
2018-03-17T12:44:25.927Z,10.68
2018-03-17T12:46:52.326Z,7.75
2018-03-17T12:49:18.817Z,9.43
2018-03-17T12:51:45.194Z,9.93
2018-03-17T12:54:11.662Z,13.80
2018-03-17T12:56:38.033Z,15.77
2018-03-17T12:59:04.437Z,11.32
2018-03-17T13:01:30.867Z,9.63
2018-03-17T13:03:57.252Z,6.85
2018-03-17T13:06:23.645Z,7.15
2018-03-17T13:08:50.053Z,5.25
2018-03-17T13:11:16.495Z,7.25
2018-03-17T13:13:43.614Z,10.05
2018-03-17T13:16:10.041Z,8.13
2018-03-17T13:18:36.466Z,10.27
2018-03-17T13:21:03.051Z,8.60
2018-03-17T13:23:29.472Z,11.43
2018-03-17T13:25:56.659Z,8.25
2018-03-17T13:28:29.870Z,6.10
2018-03-17T13:30:56.269Z,12.75
2018-03-17T13:33:23.438Z,4.45
2018-03-17T13:36:08.344Z,4.82
2018-03-17T13:38:34.793Z,8.50
2018-03-17T13:41:02.026Z,9.90
2018-03-17T13:43:28.441Z,6.60
2018-03-17T13:45:55.513Z,9.65
2018-03-17T13:48:21.949Z,15.25
2018-03-17T13:50:48.392Z,6.75
2018-03-17T13:53:14.807Z,7.28
2018-03-17T13:55:41.172Z,11.98
2018-03-17T13:58:07.602Z,13.95
2018-03-17T14:00:34.006Z,10.20
2018-03-17T14:03:00.448Z,11.65
2018-03-17T14:05:27.638Z,13.45
2018-03-17T14:07:54.119Z,11.15
2018-03-17T14:10:20.490Z,12.77
2018-03-17T14:12:46.983Z,11.63
2018-03-17T14:15:13.411Z,11.75
2018-03-17T14:17:39.816Z,10.18
2018-03-17T14:20:06.278Z,8.18
2018-03-17T14:22:32.672Z,10.13
2018-03-17T14:24:59.098Z,10.30
2018-03-17T14:27:25.490Z,12.37
2018-03-17T14:29:51.938Z,7.93
2018-03-17T14:32:18.859Z,9.68
2018-03-17T14:34:45.227Z,15.48
2018-03-17T14:37:11.707Z,11.80
2018-03-17T14:39:38.199Z,8.00
2018-03-17T14:42:04.669Z,8.02
2018-03-17T14:44:31.808Z,8.23
2018-03-17T14:46:58.266Z,10.45
2018-03-17T14:49:25.466Z,12.95
2018-03-17T14:51:51.873Z,8.48
2018-03-17T14:54:18.297Z,11.02
2018-03-17T14:56:44.782Z,9.27
2018-03-17T14:59:11.961Z,12.15
2018-03-17T15:01:39.131Z,13.13
2018-03-17T15:04:05.575Z,8.65
2018-03-17T15:06:32.098Z,4.55
2018-03-17T15:08:58.508Z,9.77
2018-03-17T15:11:24.919Z,10.50
2018-03-17T15:13:51.547Z,9.70
2018-03-17T15:16:17.989Z,15.00
2018-03-17T15:18:44.439Z,10.88
2018-03-17T15:21:10.929Z,11.32
2018-03-17T15:23:37.384Z,10.73
2018-03-17T15:26:03.810Z,7.97
2018-03-17T15:28:31.075Z,9.25
2018-03-17T15:30:57.505Z,15.98
2018-03-17T15:33:23.995Z,8.43
2018-03-17T15:35:50.481Z,12.32
2018-03-17T15:38:16.942Z,11.93
2018-03-17T15:40:43.556Z,8.77
2018-03-17T15:43:09.974Z,7.97
2018-03-17T15:45:37.122Z,12.50
2018-03-17T15:48:04.287Z,10.65
2018-03-17T15:50:30.809Z,11.63
2018-03-17T15:52:57.944Z,14.27
2018-03-17T15:55:24.405Z,13.25
2018-03-17T15:57:50.807Z,12.27
2018-03-17T16:00:17.261Z,15.63
2018-03-17T16:02:43.674Z,13.20
2018-03-17T16:05:10.891Z,11.05
2018-03-17T16:07:37.328Z,15.63
2018-03-17T16:10:03.821Z,9.93
2018-03-17T16:12:30.243Z,9.45
2018-03-17T16:14:57.404Z,9.32
2018-03-17T16:17:23.939Z,9.15
2018-03-17T16:19:50.434Z,9.93
2018-03-17T16:22:16.860Z,8.45
2018-03-17T16:24:44.156Z,9.85
2018-03-17T16:27:10.611Z,9.20
2018-03-17T16:29:37.031Z,11.12
2018-03-17T16:32:03.529Z,9.18
2018-03-17T16:34:30.740Z,12.48
2018-03-17T16:36:57.323Z,9.85
2018-03-17T16:39:23.750Z,6.32
2018-03-17T16:41:50.932Z,8.82
2018-03-17T16:44:17.342Z,11.48
2018-03-17T16:46:43.742Z,10.40
2018-03-17T16:49:10.211Z,8.05
2018-03-17T16:51:36.780Z,9.95
2018-03-17T16:54:03.247Z,4.85
2018-03-17T16:56:29.647Z,7.95
2018-03-17T16:58:56.172Z,8.55
2018-03-17T17:01:22.616Z,8.05
2018-03-17T17:03:49.053Z,7.65
2018-03-17T17:06:15.409Z,10.73
2018-03-17T17:08:43.517Z,9.63
2018-03-17T17:11:09.973Z,5.47
2018-03-17T17:13:36.422Z,5.55
2018-03-17T17:16:02.913Z,10.57
2018-03-17T17:18:29.330Z,6.97
2018-03-17T17:20:55.772Z,8.00
2018-03-17T17:23:22.169Z,8.73
2018-03-17T17:25:48.619Z,9.23
2018-03-17T17:28:15.080Z,6.85
2018-03-17T17:30:41.527Z,10.55
2018-03-17T17:33:07.991Z,10.00
2018-03-17T17:35:34.437Z,11.27
2018-03-17T17:38:00.843Z,7.15
2018-03-17T17:40:27.242Z,10.18
2018-03-17T17:42:53.730Z,12.52
2018-03-17T17:45:20.173Z,7.93
2018-03-17T17:47:46.599Z,7.85
2018-03-17T17:50:13.797Z,8.77
2018-03-17T17:52:40.180Z,5.43
2018-03-17T17:55:09.088Z,10.32
2018-03-17T17:57:36.483Z,9.85
2018-03-17T18:00:03.420Z,8.15
2018-03-17T18:02:29.918Z,10.30
2018-03-17T18:04:56.324Z,7.55
2018-03-17T18:07:23.500Z,6.80
2018-03-17T18:09:49.967Z,9.90
2018-03-17T18:12:16.380Z,5.55
2018-03-17T18:14:42.795Z,7.53
2018-03-17T18:17:09.294Z,5.95
2018-03-17T18:19:36.501Z,8.85
2018-03-17T18:22:02.945Z,11.55
2018-03-17T18:24:29.330Z,4.60
2018-03-17T18:26:55.863Z,7.47
2018-03-17T18:29:22.270Z,10.57
2018-03-17T18:31:49.410Z,8.20
2018-03-17T18:34:15.952Z,3.58
2018-03-17T18:36:42.396Z,8.60
2018-03-17T18:39:09.674Z,7.40
2018-03-17T18:41:36.097Z,6.22
2018-03-17T18:44:02.494Z,7.62
2018-03-17T18:46:30.375Z,11.35
2018-03-17T18:48:56.814Z,10.43
2018-03-17T18:51:24.062Z,8.57
2018-03-17T18:53:51.265Z,5.68
2018-03-17T18:56:17.678Z,6.75
2018-03-17T18:58:44.207Z,9.18
2018-03-17T19:01:10.693Z,5.80
2018-03-17T19:03:37.144Z,7.68
2018-03-17T19:06:04.239Z,9.57
2018-03-17T19:08:30.938Z,8.93
2018-03-17T19:10:57.401Z,10.40
2018-03-17T19:13:23.896Z,6.60
2018-03-17T19:15:51.251Z,9.00
2018-03-17T19:18:17.690Z,7.97
2018-03-17T19:20:44.101Z,9.60
2018-03-17T19:23:11.294Z,10.30
2018-03-17T19:25:37.749Z,4.78
2018-03-17T19:28:04.253Z,10.70
2018-03-17T19:30:30.681Z,6.50
2018-03-17T19:32:57.100Z,12.98
2018-03-17T19:35:23.978Z,8.68
2018-03-17T19:37:50.385Z,8.70
2018-03-17T19:40:17.112Z,10.60
2018-03-17T19:42:43.850Z,10.52
2018-03-17T19:45:10.315Z,6.70
2018-03-17T19:47:36.711Z,5.62
2018-03-17T19:50:03.166Z,6.07
2018-03-17T19:52:29.607Z,7.82
2018-03-17T19:54:56.035Z,7.80
2018-03-17T19:57:22.917Z,7.93
2018-03-17T19:59:49.428Z,10.60
2018-03-17T20:02:15.909Z,8.13
2018-03-17T20:04:42.416Z,11.45
2018-03-17T20:07:08.851Z,5.85
2018-03-17T20:09:35.346Z,12.98
2018-03-17T20:12:01.752Z,10.38
2018-03-17T20:14:28.888Z,9.82
2018-03-17T20:16:56.701Z,10.48
2018-03-17T20:19:23.238Z,7.00
2018-03-17T20:21:50.244Z,9.10
2018-03-17T20:24:16.660Z,9.80
2018-03-17T20:29:16.206Z,11.48
2018-03-17T20:31:42.717Z,6.53
2018-03-17T20:34:10.408Z,7.53
2018-03-17T20:36:36.861Z,6.07
2018-03-17T20:39:04.011Z,6.15
2018-03-17T20:41:30.451Z,8.68
2018-03-17T20:43:56.964Z,15.95
2018-03-17T20:46:26.114Z,10.80
2018-03-17T20:48:52.589Z,9.65
2018-03-17T20:51:19.014Z,8.07
2018-03-17T20:53:45.584Z,9.90
2018-03-17T20:56:12.769Z,6.53
2018-03-17T20:58:39.217Z,5.37
2018-03-17T21:01:07.192Z,11.12
2018-03-17T21:03:33.639Z,13.93
2018-03-17T21:06:00.109Z,11.77
2018-03-17T21:08:27.304Z,10.75
2018-03-17T21:10:54.635Z,9.82
2018-03-17T21:13:21.123Z,8.95
2018-03-17T21:15:50.780Z,6.85
2018-03-17T21:18:17.216Z,10.23
2018-03-17T21:20:43.678Z,8.75
2018-03-17T21:23:10.212Z,10.85
2018-03-17T21:25:36.683Z,11.05
2018-03-17T21:28:04.852Z,10.55
2018-03-17T21:30:31.284Z,10.38
2018-03-17T21:32:57.716Z,6.90
2018-03-17T21:35:26.093Z,14.32
2018-03-17T21:37:53.252Z,12.68
2018-03-17T21:40:21.098Z,13.32
2018-03-17T21:42:48.285Z,11.70
2018-03-17T21:45:14.708Z,12.90
2018-03-17T21:47:41.139Z,9.00
2018-03-17T21:50:07.674Z,5.68
2018-03-17T21:52:34.933Z,9.60
2018-03-17T21:55:01.388Z,12.98
2018-03-17T21:57:27.817Z,6.97
2018-03-17T21:59:54.261Z,5.37
2018-03-17T22:02:20.701Z,13.20
2018-03-17T22:04:47.138Z,9.32
2018-03-17T22:07:14.348Z,15.95
2018-03-17T22:09:40.844Z,8.40
2018-03-17T22:12:07.263Z,19.17
2018-03-17T22:14:33.710Z,8.90
2018-03-17T22:17:00.116Z,9.10
2018-03-17T22:19:26.608Z,6.65
2018-03-17T22:21:55.575Z,7.47
2018-03-17T22:24:23.026Z,11.55
2018-03-17T22:26:51.002Z,9.55
2018-03-17T22:29:20.086Z,7.72
2018-03-17T22:31:47.259Z,11.88
2018-03-17T22:34:13.733Z,18.75
2018-03-17T22:36:40.193Z,13.50
2018-03-17T22:39:08.219Z,11.38
2018-03-17T22:41:34.704Z,10.43
2018-03-17T22:44:01.907Z,11.82
2018-03-17T22:46:28.353Z,13.30
2018-03-17T22:48:54.722Z,9.73
2018-03-17T22:51:21.327Z,10.25
2018-03-17T22:53:47.727Z,12.43
2018-03-17T22:56:14.966Z,14.75
2018-03-17T22:58:42.406Z,16.40
2018-03-17T23:01:08.918Z,10.85
2018-03-17T23:03:36.332Z,17.62
2018-03-17T23:06:04.905Z,18.33
2018-03-17T23:08:32.290Z,14.93
2018-03-17T23:10:58.714Z,8.57
2018-03-17T23:13:25.146Z,13.40
2018-03-17T23:15:52.783Z,13.90
2018-03-17T23:18:19.368Z,8.25
2018-03-17T23:20:45.816Z,14.85
2018-03-17T23:23:12.302Z,12.98
2018-03-17T23:25:38.772Z,14.65
2018-03-17T23:28:05.205Z,5.40
2018-03-17T23:30:31.669Z,11.48
2018-03-17T23:32:58.137Z,14.40
2018-03-17T23:35:24.627Z,11.98
2018-03-17T23:37:51.080Z,8.95
2018-03-17T23:40:17.553Z,8.65
2018-03-17T23:42:44.963Z,9.85
2018-03-17T23:45:12.187Z,10.43
2018-03-17T23:47:38.648Z,22.80
2018-03-17T23:50:05.117Z,7.82
2018-03-17T23:52:32.320Z,13.70
2018-03-17T23:54:58.872Z,10.82
2018-03-17T23:57:25.286Z,11.45
2018-03-17T23:59:51.724Z,8.73
